Time;durP1;ratioP1;P1;durP2;ratioP2;P2;SDS_P1;SDS_P2;PMS_P1;PMS_P2;Temp;Humidity;BMP_temperature;BMP_pressure;BME280_temperature;BME280_humidity;BME280_pressure;Samples;Min_cycle;Max_cycle;Signal;HPM_P1;HPM_P2
2021/04/12 00:01:06;;;;;;;20.98;10.88;;;;;;;11.33;58.13;100644.44;5035523;28;20031;-61
2021/04/12 00:03:53;;;;;;;18.75;10.10;;;;;;;11.28;58.20;100640.03;5017679;28;20041;-57
2021/04/12 00:06:25;;;;;;;20.75;11.10;;;;;;;11.27;58.07;100637.59;5035442;28;20425;-60
2021/04/12 00:08:58;;;;;;;;;;;;;;;11.28;58.10;100631.56;5035509;28;20120;-63
2021/04/12 00:11:37;;;;;;;18.88;10.15;;;;;;;11.27;58.77;100638.41;5035307;28;20004;-60
2021/04/12 00:14:05;;;;;;;19.20;11.13;;;;;;;11.27;58.51;100627.16;5027744;28;20061;-62
2021/04/12 00:16:38;;;;;;;25.65;10.70;;;;;;;11.31;58.42;100627.97;5035568;28;20052;-58
2021/04/12 00:19:22;;;;;;;18.65;10.13;;;;;;;11.27;58.38;100624.34;5028898;28;20100;-66
2021/04/12 00:22:09;;;;;;;18.20;9.98;;;;;;;11.29;58.62;100612.69;5035383;28;20066;-63
2021/04/12 00:24:41;;;;;;;19.23;9.60;;;;;;;11.26;58.90;100614.28;5017637;28;20410;-58
2021/04/12 00:27:14;;;;;;;21.60;11.15;;;;;;;11.26;58.49;100613.50;5035106;28;20073;-64
2021/04/12 00:29:53;;;;;;;17.13;9.77;;;;;;;11.23;58.61;100615.09;5035234;28;20033;-65
2021/04/12 00:32:24;;;;;;;18.35;10.50;;;;;;;11.21;58.96;100616.69;5037705;28;20061;-59
2021/04/12 00:35:09;;;;;;;21.05;11.40;;;;;;;11.17;59.02;100616.69;5038860;28;20037;-62
2021/04/12 00:37:52;;;;;;;19.13;10.57;;;;;;;11.14;59.16;100607.03;5038141;28;20095;-65
2021/04/12 00:40:49;;;;;;;19.05;10.77;;;;;;;11.12;58.60;100609.44;5038596;28;20033;-65
2021/04/12 00:43:41;;;;;;;15.95;10.07;;;;;;;11.11;58.79;100601.41;5038722;28;20033;-57
2021/04/12 00:46:25;;;;;;;19.90;10.73;;;;;;;11.13;59.08;100604.63;5038463;28;20033;-57
2021/04/12 00:49:02;;;;;;;21.75;10.35;;;;;;;11.13;59.01;100602.63;5038477;28;20372;-65
2021/04/12 00:51:27;;;;;;;19.85;10.93;;;;;;;11.17;59.03;100605.44;5038362;28;20037;-68
2021/04/12 00:54:17;;;;;;;17.13;10.77;;;;;;;11.17;58.75;100611.06;5038494;28;20479;-65
2021/04/12 00:56:51;;;;;;;22.45;10.60;;;;;;;11.14;58.84;100607.03;5038316;28;20025;-58
2021/04/12 00:59:29;;;;;;;23.63;10.50;;;;;;;11.13;58.79;100605.44;5038189;28;20029;-59
2021/04/12 01:02:23;;;;;;;17.90;10.57;;;;;;;11.07;59.29;100598.59;5038171;28;20029;-61
2021/04/12 01:05:06;;;;;;;19.30;10.20;;;;;;;11.02;59.28;100598.22;4981162;28;20108;-65
2021/04/12 01:07:50;;;;;;;16.13;10.50;;;;;;;10.98;59.39;100597.41;5025178;28;20310;-60
2021/04/12 01:10:37;;;;;;;16.90;10.40;;;;;;;10.93;59.08;100590.16;5037996;28;20308;-66
2021/04/12 01:13:39;;;;;;;18.20;9.35;;;;;;;10.89;59.58;100588.53;5031519;28;20394;-66
2021/04/12 01:16:40;;;;;;;19.98;10.20;;;;;;;10.80;59.97;100592.56;5037795;28;20161;-65
2021/04/12 01:19:29;;;;;;;21.23;10.77;;;;;;;10.76;60.13;100586.13;5020244;28;20034;-65
2021/04/12 01:22:26;;;;;;;16.88;10.93;;;;;;;10.73;60.02;100584.13;5037918;28;20064;-65
2021/04/12 01:25:35;;;;;;;18.40;10.57;;;;;;;10.70;60.01;100582.09;5038123;28;20025;-65
2021/04/12 01:28:35;;;;;;;20.20;9.73;;;;;;;10.70;60.11;100584.91;5024793;28;20037;-65
2021/04/12 01:31:18;;;;;;;16.35;9.80;;;;;;;10.70;60.07;100584.91;5037457;28;20041;-65
2021/04/12 01:34:13;;;;;;;19.30;11.35;;;;;;;10.67;60.31;100582.88;5037720;28;20408;-65
2021/04/12 01:36:43;;;;;;;26.90;12.45;;;;;;;10.67;60.80;100577.25;5037691;28;20033;-65
2021/04/12 01:39:12;;;;;;;39.58;15.45;;;;;;;10.71;60.29;100583.72;5037452;28;20095;-65
2021/04/12 01:42:18;;;;;;;31.77;14.25;;;;;;;10.78;60.88;100580.09;5037307;28;20329;-65
2021/04/12 01:44:53;;;;;;;24.38;11.60;;;;;;;10.73;60.81;100570.06;4981631;28;20475;-64
2021/04/12 01:47:48;;;;;;;18.60;10.75;;;;;;;10.74;60.47;100568.03;5037649;28;20384;-65
2021/04/12 01:50:17;;;;;;;21.55;10.98;;;;;;;10.72;60.93;100571.25;5037226;28;20037;-65
2021/04/12 01:53:11;;;;;;;20.48;11.05;;;;;;;10.86;60.33;100566.84;5037359;28;20065;-65
2021/04/12 01:55:52;;;;;;;19.38;10.57;;;;;;;10.86;60.51;100555.59;5024623;28;20033;-65
2021/04/12 01:58:36;;;;;;;17.75;11.00;;;;;;;10.86;59.98;100545.16;5036850;28;20116;-65
2021/04/12 02:01:15;;;;;;;21.98;10.80;;;;;;;10.86;60.61;100539.53;5031447;28;20034;-65
2021/04/12 02:03:59;;;;;;;20.52;10.95;;;;;;;10.86;60.57;100550.78;5036900;28;20029;-64
2021/04/12 02:06:30;;;;;;;15.60;10.48;;;;;;;10.87;60.03;100545.97;5037082;28;20041;-65
2021/04/12 02:09:25;;;;;;;16.73;10.10;;;;;;;10.83;60.43;100557.19;5036549;28;20326;-59
2021/04/12 02:12:08;;;;;;;20.77;11.07;;;;;;;10.79;60.52;100551.59;5036607;28;20119;-63
2021/04/12 02:14:59;;;;;;;18.35;11.45;;;;;;;10.81;60.38;100557.59;5036847;28;20049;-61
2021/04/12 02:17:40;;;;;;;21.50;12.13;;;;;;;10.81;60.65;100560.41;5036564;28;20417;-64
2021/04/12 02:20:18;;;;;;;20.52;12.23;;;;;;;10.80;60.54;100550.38;5036678;28;20045;-63
2021/04/12 02:23:30;;;;;;;18.48;12.27;;;;;;;10.79;60.36;100545.97;5035771;28;20029;-64
2021/04/12 02:26:05;;;;;;;25.88;11.00;;;;;;;10.84;60.42;100548.38;5036670;28;20493;-65
2021/04/12 02:29:08;;;;;;;24.23;12.30;;;;;;;10.88;60.29;100536.31;5036770;28;20029;-64
2021/04/12 02:31:50;;;;;;;25.23;12.82;;;;;;;10.91;60.30;100546.75;5036701;28;20041;-65
2021/04/12 02:35:00;;;;;;;19.05;12.88;;;;;;;10.87;60.65;100537.53;5018885;28;20442;-65
2021/04/12 02:37:28;;;;;;;26.73;13.23;;;;;;;10.75;61.02;100528.28;5010015;28;20116;-65
2021/04/12 02:40:09;;;;;;;21.70;12.55;;;;;;;10.69;61.59;100532.72;5036500;28;20030;-65
2021/04/12 02:42:37;;;;;;;18.00;12.10;;;;;;;10.66;61.66;100529.88;5036169;28;20042;-65
2021/04/12 02:45:39;;;;;;;22.25;13.15;;;;;;;10.65;61.45;100533.88;5036515;28;20033;-65
2021/04/12 02:48:34;;;;;;;42.97;17.45;;;;;;;10.62;61.41;100521.44;5035991;28;20044;-61
2021/04/12 02:51:34;;;;;;;61.42;23.30;;;;;;;10.62;61.56;100523.44;5036209;28;20033;-60
2021/04/12 02:54:25;;;;;;;27.00;15.00;;;;;;;10.60;61.10;100523.03;5035782;28;20037;-58
2021/04/12 02:57:17;;;;;;;22.75;13.18;;;;;;;10.63;61.21;100525.03;5036034;28;20026;-63
2021/04/12 02:59:43;;;;;;;24.67;13.60;;;;;;;10.63;61.09;100534.28;5034217;28;20417;-59
2021/04/12 03:02:32;;;;;;;33.60;18.75;;;;;;;10.57;61.71;100527.47;5036108;28;20033;-60
2021/04/12 03:05:10;;;;;;;26.33;15.25;;;;;;;10.60;61.42;100523.03;5035879;28;20037;-57
2021/04/12 03:07:57;;;;;;;23.13;13.52;;;;;;;10.63;61.21;100525.03;5035681;28;20034;-56
2021/04/12 03:10:44;;;;;;;22.00;14.68;;;;;;;10.59;61.68;100536.28;5036112;28;20102;-63
2021/04/12 03:13:20;;;;;;;23.75;14.10;;;;;;;10.58;61.18;100523.44;5035918;28;20318;-60
2021/04/12 03:16:20;;;;;;;24.67;14.95;;;;;;;10.57;61.45;100530.25;5035619;28;20045;-65
2021/04/12 03:19:10;;;;;;;24.63;14.95;;;;;;;10.51;61.61;100531.88;5025269;28;20322;-65
2021/04/12 03:21:50;;;;;;;30.95;15.45;;;;;;;10.48;61.34;100533.47;5035583;28;20417;-62
2021/04/12 03:24:33;;;;;;;30.70;16.08;;;;;;;10.40;62.33;100531.81;5018123;28;20048;-52
2021/04/12 03:26:58;;;;;;;23.17;14.48;;;;;;;10.34;62.41;100527.81;5035833;28;20437;-61
2021/04/12 03:29:33;;;;;;;29.30;15.80;;;;;;;10.25;62.09;100518.97;5018135;28;20042;-61
2021/04/12 03:32:07;;;;;;;24.77;14.07;;;;;;;10.21;62.45;100518.16;5035707;28;20045;-60
2021/04/12 03:34:59;;;;;;;29.55;16.30;;;;;;;10.13;62.75;100520.09;5034689;28;20033;-60
2021/04/12 03:37:31;;;;;;;28.95;15.63;;;;;;;10.07;62.43;100532.13;5035327;28;20037;-60
2021/04/12 03:40:08;;;;;;;25.30;15.05;;;;;;;10.05;63.33;100517.66;5035471;28;20104;-64
2021/04/12 03:42:52;;;;;;;28.45;15.45;;;;;;;10.01;62.81;100523.28;5035449;28;20425;-61
2021/04/12 03:45:17;;;;;;;28.33;16.58;;;;;;;9.98;63.10;100514.84;5035562;28;20360;-65
2021/04/12 03:48:13;;;;;;;32.35;16.67;;;;;;;9.96;64.10;100515.22;5035452;28;20083;-64
2021/04/12 03:50:53;;;;;;;27.95;17.05;;;;;;;9.91;64.13;100513.63;5035384;28;20108;-65
2021/04/12 03:53:46;;;;;;;28.35;16.85;;;;;;;9.87;64.02;100514.81;5035432;28;20057;-65
2021/04/12 03:56:21;;;;;;;54.42;27.33;;;;;;;9.80;64.10;100517.56;5035426;28;20108;-58
2021/04/12 03:59:19;;;;;;;278.80;109.85;;;;;;;9.75;64.72;100520.75;5035457;28;20026;-59
2021/04/12 04:01:53;;;;;;;79.25;37.10;;;;;;;9.69;64.80;100522.34;5004548;28;20038;-65
2021/04/12 04:04:30;;;;;;;73.35;39.03;;;;;;;9.70;64.83;100515.53;5035129;28;20026;-66
2021/04/12 04:07:26;;;;;;;41.75;21.35;;;;;;;9.73;64.86;100521.16;5037133;28;20049;-65
2021/04/12 04:10:33;;;;;;;33.05;19.45;;;;;;;9.71;64.49;100515.13;5039156;28;20433;-65
2021/04/12 04:13:36;;;;;;;38.08;18.77;;;;;;;9.64;64.97;100514.28;5010831;28;20421;-66
2021/04/12 04:16:12;;;;;;;46.50;23.38;;;;;;;9.68;64.92;100524.34;5021308;28;20429;-65
2021/04/12 04:18:49;;;;;;;49.85;27.55;;;;;;;9.66;65.20;100518.31;5039200;28;20044;-66
2021/04/12 04:21:18;;;;;;;34.60;22.58;;;;;;;9.68;65.17;100526.34;5038891;28;20060;-65
2021/04/12 04:23:52;;;;;;;34.65;20.63;;;;;;;9.68;64.65;100526.34;5039313;28;20549;-60
2021/04/12 04:27:02;;;;;;;39.35;21.55;;;;;;;9.81;64.00;100534.00;5039031;28;20041;-63
2021/04/12 04:29:53;;;;;;;30.90;18.40;;;;;;;9.79;64.57;100525.19;5015543;28;20030;-65
2021/04/12 04:32:39;;;;;;;32.80;17.10;;;;;;;9.76;64.96;100525.16;5038891;28;20417;-57
2021/04/12 04:35:20;;;;;;;29.27;17.25;;;;;;;9.83;64.57;100533.63;5038110;28;20038;-62
2021/04/12 04:38:29;;;;;;;31.73;19.55;;;;;;;9.86;63.84;100532.81;5038403;28;20040;-60
2021/04/12 04:41:22;;;;;;;36.40;21.67;;;;;;;9.93;63.75;100532.06;5034948;28;20033;-60
2021/04/12 04:43:54;;;;;;;28.75;18.95;;;;;;;9.96;64.10;100528.47;5038548;28;20036;-62
2021/04/12 04:46:20;;;;;;;30.15;17.15;;;;;;;10.01;64.04;100544.94;5038417;28;20095;-59
2021/04/12 04:49:20;;;;;;;31.25;18.33;;;;;;;10.00;64.38;100544.13;5038297;28;20034;-61
2021/04/12 04:52:20;;;;;;;34.63;18.05;;;;;;;10.03;64.68;100557.38;5038415;28;20025;-63
2021/04/12 04:54:57;;;;;;;39.63;18.15;;;;;;;10.11;64.88;100552.59;5012800;28;20364;-65
2021/04/12 04:57:42;;;;;;;33.55;17.25;;;;;;;10.16;63.52;100557.84;5038095;28;20108;-68
2021/04/12 05:00:29;;;;;;;29.40;16.90;;;;;;;10.20;64.16;100565.09;5038224;28;20030;-63
2021/04/12 05:03:28;;;;;;;31.27;18.13;;;;;;;10.32;63.45;100568.75;5038068;28;20120;-64
2021/04/12 05:06:08;;;;;;;33.47;18.85;;;;;;;10.34;63.24;100567.16;5023082;28;20037;-64
2021/04/12 05:08:50;;;;;;;36.67;18.65;;;;;;;10.31;63.83;100569.94;5037450;28;20030;-64
2021/04/12 05:11:40;;;;;;;31.25;16.75;;;;;;;10.30;64.72;100568.34;5037695;28;20025;-56
2021/04/12 05:14:29;;;;;;;27.30;16.15;;;;;;;10.31;64.15;100575.56;5020068;28;20373;-65
2021/04/12 05:17:19;;;;;;;26.80;16.40;;;;;;;10.37;63.75;100565.53;5037620;28;20041;-64
2021/04/12 05:20:06;;;;;;;29.58;15.75;;;;;;;10.47;63.39;100561.97;5038128;28;20433;-64
2021/04/12 05:22:47;;;;;;;28.45;15.52;;;;;;;10.45;64.20;100568.00;5037616;28;20116;-65
2021/04/12 05:25:19;;;;;;;32.05;15.27;;;;;;;10.53;63.10;100577.25;5037890;28;20030;-53
2021/04/12 05:28:11;;;;;;;29.33;15.52;;;;;;;10.57;63.10;100564.00;5037592;28;20026;-64
2021/04/12 05:31:14;;;;;;;23.83;15.05;;;;;;;10.64;62.07;100564.00;5038042;28;20064;-55
2021/04/12 05:34:13;;;;;;;30.25;15.90;;;;;;;10.64;63.00;100555.56;5041864;28;20044;-61
2021/04/12 05:36:57;;;;;;;21.95;14.20;;;;;;;10.70;62.44;100556.81;5024994;28;20029;-56
2021/04/12 05:39:35;;;;;;;28.63;15.02;;;;;;;10.71;62.06;100554.78;5037147;28;20448;-65
2021/04/12 05:42:29;;;;;;;26.98;15.10;;;;;;;10.74;62.51;100540.75;5037518;28;20452;-64
2021/04/12 05:45:16;;;;;;;27.60;15.88;;;;;;;10.79;62.05;100543.16;5031721;28;20128;-65
2021/04/12 05:47:50;;;;;;;27.45;15.60;;;;;;;10.89;62.20;100540.72;5019433;28;20063;-66
2021/04/12 05:50:21;;;;;;;31.25;16.63;;;;;;;10.94;61.98;100546.75;5037431;28;20044;-65
2021/04/12 05:52:50;;;;;;;;;;;;;;;11.06;61.51;100543.56;5020190;28;20507;-65
2021/04/12 05:55:34;;;;;;;26.55;15.10;;;;;;;11.16;61.61;100544.75;5037250;28;19912;-65
2021/04/12 05:58:21;;;;;;;29.80;16.42;;;;;;;11.28;61.56;100543.53;5036990;28;20037;-66
2021/04/12 06:00:49;;;;;;;26.52;16.08;;;;;;;11.40;60.70;100551.56;5019524;28;20398;-65
2021/04/12 06:03:56;;;;;;;32.15;18.10;;;;;;;11.52;60.81;100541.91;5019510;28;20428;-64
2021/04/12 06:06:43;;;;;;;30.30;17.27;;;;;;;11.64;61.04;100538.63;4976343;28;20046;-64
2021/04/12 06:09:30;;;;;;;42.47;20.67;;;;;;;11.72;60.57;100541.00;4974381;28;20062;-62
2021/04/12 06:12:10;;;;;;;34.47;21.63;;;;;;;11.85;59.72;100535.78;5020496;28;20064;-60
2021/04/12 06:15:12;;;;;;;24.92;15.77;;;;;;;11.97;59.83;100535.31;5036884;28;20325;-63
2021/04/12 06:17:43;;;;;;;25.85;14.10;;;;;;;12.12;59.81;100529.66;5036762;28;20049;-65
2021/04/12 06:20:46;;;;;;;22.77;13.50;;;;;;;12.29;58.91;100531.53;5019320;28;20067;-62
2021/04/12 06:23:34;;;;;;;22.15;14.05;;;;;;;12.44;58.82;100535.91;5036502;28;20499;-63
2021/04/12 06:26:23;;;;;;;24.95;13.18;;;;;;;12.60;59.00;100536.22;5036285;28;20044;-66
2021/04/12 06:29:33;;;;;;;20.75;12.82;;;;;;;12.81;57.69;100545.72;5035945;28;20037;-66
2021/04/12 06:32:26;;;;;;;21.90;12.18;;;;;;;13.03;56.97;100549.97;5010031;28;20060;-64
2021/04/12 06:35:07;;;;;;;19.58;11.63;;;;;;;13.21;57.54;100539.38;5036150;28;20432;-66
2021/04/12 06:37:52;;;;;;;20.50;10.75;;;;;;;13.43;56.60;100545.63;5035801;28;20033;-65
2021/04/12 06:40:38;;;;;;;18.80;11.38;;;;;;;13.64;55.79;100543.78;5035712;28;20372;-65
2021/04/12 06:43:19;;;;;;;16.73;10.00;;;;;;;13.83;53.92;100540.34;5019188;28;20361;-66
2021/04/12 06:46:05;;;;;;;22.70;10.07;;;;;;;14.01;53.64;100531.66;5035657;28;20064;-65
2021/04/12 06:48:43;;;;;;;21.48;11.25;;;;;;;14.23;53.71;100542.25;5018499;28;20033;-65
2021/04/12 06:51:33;;;;;;;15.73;9.68;;;;;;;14.39;53.42;100540.84;5018453;28;20092;-63
2021/04/12 06:54:13;;;;;;;17.02;8.77;;;;;;;14.61;51.63;100538.53;5013215;28;20030;-64
2021/04/12 06:56:53;;;;;;;17.20;8.38;;;;;;;14.81;50.42;100530.97;5033211;28;20029;-66
2021/04/12 06:59:56;;;;;;;17.52;7.10;;;;;;;15.06;48.28;100537.00;5034877;28;20033;-63
2021/04/12 07:02:43;;;;;;;14.15;7.15;;;;;;;15.30;47.17;100551.16;5032261;28;20037;-68
2021/04/12 07:05:08;;;;;;;12.30;6.65;;;;;;;15.52;46.64;100543.88;5035814;28;20026;-57
2021/04/12 07:08:08;;;;;;;14.63;6.82;;;;;;;15.66;47.24;100535.16;5035949;28;20037;-58
2021/04/12 07:10:50;;;;;;;12.13;5.75;;;;;;;15.87;45.78;100547.28;5035760;28;20033;-57
2021/04/12 07:13:41;;;;;;;15.52;6.38;;;;;;;16.02;46.38;100534.44;5035796;28;20071;-50
2021/04/12 07:16:45;;;;;;;17.02;5.18;;;;;;;16.21;44.81;100530.78;5035733;28;20198;-59
2021/04/12 07:20:02;;;;;;;10.20;4.60;;;;;;;16.35;44.30;100536.13;5035523;28;20037;-63
2021/04/12 07:22:27;;;;;;;13.25;4.90;;;;;;;16.47;45.44;100537.53;5035175;28;20037;-64
2021/04/12 07:25:14;;;;;;;18.20;6.83;;;;;;;16.59;44.35;100533.19;5035726;28;20357;-63
2021/04/12 07:27:51;;;;;;;14.25;5.63;;;;;;;16.73;44.56;100534.94;5035220;28;20247;-62
2021/04/12 07:30:42;;;;;;;13.45;5.85;;;;;;;16.80;44.14;100532.72;5035703;28;20044;-59
2021/04/12 07:33:29;;;;;;;13.38;4.50;;;;;;;16.90;43.88;100520.28;5028297;28;20085;-56
2021/04/12 07:36:29;;;;;;;9.85;5.30;;;;;;;17.02;44.37;100520.84;5035424;28;20025;-57
2021/04/12 07:38:55;;;;;;;7.68;3.60;;;;;;;17.13;44.06;100524.19;5035453;28;20034;-53
2021/04/12 07:41:45;;;;;;;10.32;3.58;;;;;;;17.25;43.96;100517.78;5037868;28;20033;-56
2021/04/12 07:44:59;;;;;;;8.65;3.63;;;;;;;17.36;42.83;100526.84;5032710;28;20116;-64
2021/04/12 07:47:43;;;;;;;17.70;4.63;;;;;;;17.54;42.39;100526.38;5027215;28;20120;-64
2021/04/12 07:50:27;;;;;;;11.23;4.63;;;;;;;17.62;43.20;100527.78;5021679;28;20474;-62
2021/04/12 07:53:19;;;;;;;9.30;3.05;;;;;;;17.72;42.25;100523.06;5039062;28;20045;-61
2021/04/12 07:56:32;;;;;;;14.65;5.13;;;;;;;17.84;41.96;100528.00;5039493;28;20044;-64
2021/04/12 07:59:31;;;;;;;15.13;4.20;;;;;;;17.88;42.65;100525.84;5018689;28;20030;-57
2021/04/12 08:02:15;;;;;;;8.30;3.75;;;;;;;18.03;43.66;100526.22;5036962;28;20044;-58
2021/04/12 08:05:19;;;;;;;9.88;5.65;;;;;;;18.28;43.11;100519.81;5033158;28;20375;-58
2021/04/12 08:07:59;;;;;;;12.48;3.92;;;;;;;18.46;42.76;100518.00;4987326;28;20037;-55
2021/04/12 08:10:40;;;;;;;14.93;5.68;;;;;;;18.52;41.50;100521.09;5038806;28;20037;-60
2021/04/12 08:13:42;;;;;;;15.38;4.72;;;;;;;18.69;42.62;100516.91;5038442;28;20034;-59
2021/04/12 08:16:40;;;;;;;15.95;5.32;;;;;;;18.84;41.81;100517.25;5031797;28;20037;-61
2021/04/12 08:19:35;;;;;;;8.02;3.05;;;;;;;18.94;43.20;100516.09;5038906;28;20334;-58
2021/04/12 08:22:19;;;;;;;9.30;2.70;;;;;;;19.15;41.02;100520.28;5036955;28;20065;-59
2021/04/12 08:24:59;;;;;;;13.40;3.25;;;;;;;19.29;41.16;100525.50;5026185;28;20018;-58
2021/04/12 08:28:02;;;;;;;8.60;3.63;;;;;;;19.35;41.54;100517.94;5026669;28;20034;-58
2021/04/12 08:30:49;;;;;;;10.20;3.25;;;;;;;19.52;41.23;100520.66;5009285;28;20038;-56
2021/04/12 08:34:08;;;;;;;14.18;4.00;;;;;;;19.53;40.58;100527.94;5026055;28;20040;-59
2021/04/12 08:36:51;;;;;;;15.55;4.50;;;;;;;19.50;40.22;100512.56;4939372;29;20032;-52
2021/04/12 08:39:34;;;;;;;15.05;3.72;;;;;;;19.42;39.88;100517.69;4938939;29;20441;-57
2021/04/12 08:42:12;;;;;;;12.10;3.72;;;;;;;19.35;40.08;100520.81;5004115;28;20037;-55
2021/04/12 08:44:40;;;;;;;11.73;3.70;;;;;;;19.33;40.52;100519.66;5038116;28;20041;-57
2021/04/12 08:47:47;;;;;;;16.20;3.45;;;;;;;19.32;39.94;100507.47;5038756;28;20053;-57
2021/04/12 08:50:28;;;;;;;10.55;3.30;;;;;;;19.34;40.51;100522.06;4958193;29;20039;-57
2021/04/12 08:53:35;;;;;;;14.75;4.05;;;;;;;19.33;40.19;100509.06;4956991;28;20114;-62
2021/04/12 08:56:31;;;;;;;15.45;3.67;;;;;;;19.47;39.78;100507.00;5005158;28;20484;-61
2021/04/12 08:58:56;;;;;;;10.82;3.17;;;;;;;19.60;40.43;100490.66;5027333;28;20048;-62
2021/04/12 09:01:59;;;;;;;8.55;3.33;;;;;;;19.73;40.18;100502.81;5037530;28;20037;-61
2021/04/12 09:05:00;;;;;;;9.43;2.72;;;;;;;19.77;39.80;100499.81;5037549;28;20038;-56
2021/04/12 09:07:59;;;;;;;8.98;2.88;;;;;;;19.77;39.90;100491.28;5037560;28;20083;-60
2021/04/12 09:11:02;;;;;;;8.10;2.78;;;;;;;19.82;39.51;100488.63;5036521;28;20034;-59
2021/04/12 09:13:52;;;;;;;10.90;2.92;;;;;;;19.99;40.38;100481.41;5037622;28;20048;-63
2021/04/12 09:16:29;;;;;;;10.95;2.88;;;;;;;20.22;41.12;100485.06;5037157;28;20052;-61
2021/04/12 09:19:19;;;;;;;7.82;2.30;;;;;;;20.34;40.11;100493.53;5037427;28;20036;-63
2021/04/12 09:22:12;;;;;;;9.27;3.47;;;;;;;20.42;39.85;100479.81;5037134;28;20060;-61
2021/04/12 09:24:56;;;;;;;10.32;2.53;;;;;;;20.44;39.75;100488.69;5019939;28;20076;-59
2021/04/12 09:27:56;;;;;;;6.30;2.58;;;;;;;20.41;39.26;100478.22;5037512;28;20306;-55
2021/04/12 09:30:33;;;;;;;8.60;2.38;;;;;;;20.35;38.62;100483.72;5037813;28;20033;-59
2021/04/12 09:33:20;;;;;;;8.07;3.20;;;;;;;20.26;39.42;100471.44;5019826;28;20033;-60
2021/04/12 09:36:17;;;;;;;7.07;2.92;;;;;;;20.25;40.17;100467.00;5037595;28;20025;-56
2021/04/12 09:39:01;;;;;;;8.38;3.03;;;;;;;20.29;39.15;100459.09;5007483;28;20429;-62
2021/04/12 09:41:58;;;;;;;6.70;2.75;;;;;;;20.24;38.91;100451.13;5037192;28;20043;-62
2021/04/12 09:44:47;;;;;;;7.28;2.17;;;;;;;20.26;39.82;100448.59;5032226;28;20103;-62
2021/04/12 09:47:31;;;;;;;8.65;2.92;;;;;;;20.38;39.15;100444.88;5037232;28;20034;-63
2021/04/12 09:50:05;;;;;;;9.05;2.50;;;;;;;20.51;40.03;100451.28;5037057;28;20421;-61
2021/04/12 09:52:33;;;;;;;12.02;2.20;;;;;;;20.61;39.64;100444.34;5037183;28;20328;-60
2021/04/12 09:55:33;;;;;;;11.32;2.72;;;;;;;20.75;39.18;100442.16;5036276;28;20033;-59
2021/04/12 09:58:20;;;;;;;5.80;2.10;;;;;;;21.01;39.30;100437.78;5036901;28;20036;-53
2021/04/12 10:00:55;;;;;;;15.25;2.75;;;;;;;21.15;38.62;100442.88;5033804;28;20037;-62
2021/04/12 10:04:02;;;;;;;8.90;2.20;;;;;;;21.21;38.79;100429.56;5036096;28;20125;-58
2021/04/12 10:06:50;;;;;;;10.10;2.10;;;;;;;21.24;38.07;100433.56;5031958;28;20041;-58
2021/04/12 10:09:46;;;;;;;11.52;3.78;;;;;;;21.20;37.85;100432.88;5036523;28;20037;-58
2021/04/12 10:12:38;;;;;;;29.92;4.03;;;;;;;21.24;37.86;100430.69;5036746;28;20033;-58
2021/04/12 10:15:03;;;;;;;12.40;2.60;;;;;;;21.26;38.51;100428.94;5015727;28;20448;-58
2021/04/12 10:17:47;;;;;;;9.33;1.90;;;;;;;21.26;37.80;100417.50;5036500;28;20029;-57
2021/04/12 10:20:20;;;;;;;12.40;2.50;;;;;;;21.34;37.07;100434.34;5036588;28;20313;-61
2021/04/12 10:22:58;;;;;;;11.63;2.95;;;;;;;21.31;37.31;100426.72;5036437;28;20026;-61
2021/04/12 10:26:05;;;;;;;12.57;2.60;;;;;;;21.25;37.11;100427.34;5019158;28;20140;-60
2021/04/12 10:28:39;;;;;;;13.82;2.65;;;;;;;21.22;37.00;100427.47;5006465;28;20069;-62
2021/04/12 10:31:46;;;;;;;8.20;2.42;;;;;;;21.15;37.25;100425.75;5036310;28;20030;-61
2021/04/12 10:34:26;;;;;;;8.85;2.30;;;;;;;21.07;37.78;100421.59;4933297;29;20043;-54
2021/04/12 10:37:04;;;;;;;10.18;2.90;;;;;;;21.05;37.40;100421.25;4937227;29;20340;-55
2021/04/12 10:39:44;;;;;;;12.88;2.42;;;;;;;21.01;36.73;100425.56;4989130;28;20168;-55
2021/04/12 10:42:24;;;;;;;12.63;2.17;;;;;;;20.97;37.22;100422.84;5033473;28;20488;-49
2021/04/12 10:45:14;;;;;;;8.98;2.58;;;;;;;20.94;37.01;100423.81;5032451;28;20364;-57
2021/04/12 10:47:52;;;;;;;11.40;2.40;;;;;;;20.91;37.30;100414.13;5032008;28;20116;-55
2021/04/12 10:50:29;;;;;;;14.75;2.92;;;;;;;20.93;37.69;100411.56;5022643;28;20025;-54
2021/04/12 10:53:13;;;;;;;9.75;2.45;;;;;;;20.96;36.91;100407.78;5030456;28;20056;-53
2021/04/12 10:55:46;;;;;;;12.00;2.22;;;;;;;20.97;37.03;100409.34;5024161;28;20033;-59
2021/04/12 10:58:43;;;;;;;13.55;3.33;;;;;;;21.05;37.18;100400.47;5036053;28;20030;-55
2021/04/12 11:01:12;;;;;;;8.93;2.45;;;;;;;21.18;36.82;100399.06;5036055;28;20040;-56
2021/04/12 11:04:11;;;;;;;6.15;2.67;;;;;;;21.24;36.17;100397.19;5035955;28;20116;-59
2021/04/12 11:06:43;;;;;;;11.32;2.70;;;;;;;21.32;35.72;100388.28;5018345;28;20037;-55
2021/04/12 11:09:15;;;;;;;11.27;2.63;;;;;;;21.36;36.46;100386.84;5035024;28;20033;-60
2021/04/12 11:12:00;;;;;;;9.40;2.42;;;;;;;21.42;35.92;100384.97;5036119;28;20366;-54
2021/04/12 11:14:46;;;;;;;6.97;2.05;;;;;;;21.40;35.44;100378.13;5035693;28;20046;-53
2021/04/12 11:17:12;;;;;;;9.30;2.40;;;;;;;21.40;36.30;100373.19;5034743;28;20084;-57
2021/04/12 11:19:48;;;;;;;9.93;2.92;;;;;;;21.40;36.11;100376.06;5033610;28;20080;-56
2021/04/12 11:22:45;;;;;;;9.70;2.95;;;;;;;21.41;36.05;100374.00;5029752;28;20325;-57
2021/04/12 11:25:17;;;;;;;17.13;4.53;;;;;;;21.37;35.17;100367.66;5033523;28;20044;-60
2021/04/12 11:28:06;;;;;;;12.88;3.10;;;;;;;21.31;35.36;100367.47;5031236;28;20041;-57
2021/04/12 11:30:53;;;;;;;10.18;3.47;;;;;;;21.27;35.39;100361.94;5032902;28;20457;-61
2021/04/12 11:33:40;;;;;;;11.43;3.25;;;;;;;21.23;36.10;100360.47;5023149;28;20037;-57
2021/04/12 11:36:23;;;;;;;18.75;3.83;;;;;;;21.23;36.04;100366.19;5030934;28;20037;-58
2021/04/12 11:39:07;;;;;;;8.07;3.25;;;;;;;21.20;36.35;100372.88;5033371;28;20040;-57
2021/04/12 11:41:54;;;;;;;11.20;3.40;;;;;;;21.22;36.34;100367.47;5033234;28;20030;-56
2021/04/12 11:44:29;;;;;;;12.63;3.50;;;;;;;21.21;35.94;100368.72;5031499;28;20040;-58
2021/04/12 11:47:13;;;;;;;11.82;3.20;;;;;;;21.19;36.18;100365.56;5023064;28;20484;-61
2021/04/12 11:49:50;;;;;;;8.40;3.25;;;;;;;21.17;36.51;100357.47;5031215;28;20314;-58
2021/04/12 11:52:22;;;;;;;10.65;3.33;;;;;;;21.09;36.13;100356.19;5032927;28;20038;-59
2021/04/12 11:54:50;;;;;;;14.25;3.95;;;;;;;21.09;36.43;100356.19;5033850;28;20041;-54
2021/04/12 11:57:18;;;;;;;12.77;3.17;;;;;;;21.04;36.33;100356.03;5034844;28;20413;-63
2021/04/12 11:59:49;;;;;;;25.05;7.05;;;;;;;20.99;36.56;100354.59;5028487;28;20038;-59
2021/04/12 12:02:28;;;;;;;8.68;3.85;;;;;;;20.97;36.30;100349.34;5034312;28;20029;-58
2021/04/12 12:05:05;;;;;;;10.63;3.65;;;;;;;20.99;36.45;100349.66;5024941;28;20034;-58
2021/04/12 12:07:35;;;;;;;16.45;4.38;;;;;;;20.91;36.45;100347.63;5026467;28;20524;-59
2021/04/12 12:10:31;;;;;;;16.85;3.35;;;;;;;20.86;36.44;100360.47;5035633;28;20041;-58
2021/04/12 12:13:21;;;;;;;8.65;2.53;;;;;;;20.80;36.92;100359.50;5035086;28;20035;-63
2021/04/12 12:16:16;;;;;;;11.90;2.80;;;;;;;20.69;36.92;100347.75;5017641;28;20057;-60
2021/04/12 12:18:50;;;;;;;8.75;2.83;;;;;;;20.67;36.48;100353.13;5035099;28;20112;-58
2021/04/12 12:21:24;;;;;;;8.70;2.78;;;;;;;20.63;36.86;100349.66;5035081;28;20080;-59
2021/04/12 12:24:17;;;;;;;9.70;3.25;;;;;;;20.66;36.59;100352.34;5035358;28;20065;-58
2021/04/12 12:27:04;;;;;;;9.77;2.70;;;;;;;20.66;36.59;100349.50;5035251;28;20064;-57
2021/04/12 12:29:47;;;;;;;8.80;3.78;;;;;;;20.63;36.73;100350.44;5038850;28;20033;-59
2021/04/12 12:32:15;;;;;;;13.45;3.65;;;;;;;20.64;36.25;100354.88;5036809;28;20059;-58
2021/04/12 12:34:54;;;;;;;11.93;3.45;;;;;;;20.62;36.93;100346.00;5038240;28;20083;-59
2021/04/12 12:37:49;;;;;;;9.57;3.28;;;;;;;20.63;36.89;100347.59;5038149;28;20041;-56